Portada
METAR-TAF:

METAR-TAF

Aeroports :

Tumbes, Perú

latitud: 03-33S, longitud: 080-24W, altitud: 25 m

Observació

L'informe es va fer fa 3 hores i 22 minuts, a les 22:00 UTC
Vent 4 kt del Nord/Nord-Oest
Temperatura 29°C
Humitat 70%
Pressió 1006 hPa
Visibilitat 10 km o més
Núvols disperses a una alçada de 2000 ft

METAR: SPME 052200Z 33004KT 9999 SCT020 29/23 Q1006 RMK BIRD HAZARD RWY 32/14 PP000

Hora: 20:22 (01:22 UTC)

Pronòstic

L'informe es va fer fa 8 hores i 22 minuts, a les 17:00 UTC
Pronòstic vàlid del 05 a les 18 UTC al 06 a les 18 UTC
Vent 10 kt del Oest
Visibilitat 10 km o més
Núvols disperses a una alçada de 2500 ft
Evolucionant progressivament
l' 05 a les 21 UTC al 05 a les 23 UTC
Cel ennuvolat a una alçada de 2000 ft
A partir de les 06 a les 1300 UTC
Vent 2 kt amb direcció variable
Visibilitat 10 km o més
Cel ennuvolat a una alçada de 2500 ft

TAF: SPME 051700Z 0518/0618 26010KT 9999 SCT025 TX32/0519Z TN24/0611Z BECMG 0521/0523 BKN020 FM061300 VRB02KT 9999 BKN025

Observacions i pronòstics meteorològics de més de 4000 aeroports (METAR i TAF).

Les estacions disponibles són els punts grocs i vermells al mapa.

Posi el ratolí al punt desitjat per veure el nom de l'estació.

Feu clic per veure les observacions i els pronòstics meteorològics.

Per canviar el mapa: feu clic els botons verds amb una creu de color negre per apropar; al botó verd amb un guió per allunyar la imatge; o en les fletxes verdes per a mapes adjacents.


METAR-TAF: